Time;durP1;ratioP1;P1;durP2;ratioP2;P2;SDS_P1;SDS_P2;PMS_P1;PMS_P2;Temp;Humidity;BMP_temperature;BMP_pressure;BME280_temperature;BME280_humidity;BME280_pressure;Samples;Min_cycle;Max_cycle;Signal;HPM_P1;HPM_P2
2022/11/12 00:02:14;;;;;;;3.20;1.90;;;12.60;78.80;;;;;;4985907;28;20465;-70
2022/11/12 00:05:01;;;;;;;1.60;1.50;;;12.50;78.30;;;;;;4976557;28;20529;-70
2022/11/12 00:07:48;;;;;;;2.20;1.80;;;12.50;77.90;;;;;;4979510;28;20464;-70
2022/11/12 00:10:35;;;;;;;3.00;2.40;;;12.50;77.80;;;;;;4978870;28;20465;-70
2022/11/12 00:13:22;;;;;;;2.33;2.13;;;12.50;77.30;;;;;;4988676;28;20450;-70
2022/11/12 00:16:09;;;;;;;2.63;1.83;;;12.50;78.00;;;;;;4986344;28;20523;-71
2022/11/12 00:18:57;;;;;;;2.00;1.77;;;12.50;77.90;;;;;;4983541;28;20468;-70
2022/11/12 00:21:44;;;;;;;1.87;1.60;;;12.50;78.20;;;;;;5004573;28;20995;-70
2022/11/12 00:24:31;;;;;;;1.83;1.20;;;12.50;78.40;;;;;;5001140;28;20496;-70
2022/11/12 00:27:18;;;;;;;3.57;2.30;;;12.50;78.00;;;;;;4980423;28;20485;-70
2022/11/12 00:30:06;;;;;;;2.37;2.17;;;12.50;77.20;;;;;;4988252;28;21006;-70
2022/11/12 00:32:55;;;;;;;3.10;1.87;;;12.50;78.00;;;;;;4984398;28;20953;-70
2022/11/12 00:35:43;;;;;;;1.80;1.70;;;12.50;78.10;;;;;;4996973;28;20478;-70
2022/11/12 00:38:31;;;;;;;2.10;1.90;;;12.50;77.90;;;;;;5002755;28;20454;-70
2022/11/12 00:41:17;;;;;;;3.10;2.20;;;12.40;77.50;;;;;;5008029;28;20587;-70
2022/11/12 00:44:04;;;;;;;2.37;2.07;;;12.40;78.10;;;;;;5012263;28;20445;-70
2022/11/12 00:46:51;;;;;;;2.57;1.90;;;12.40;78.00;;;;;;4987648;28;20492;-70
2022/11/12 00:49:38;;;;;;;2.03;1.60;;;12.40;78.30;;;;;;4985162;28;20488;-70
2022/11/12 00:52:26;;;;;;;2.80;1.93;;;12.40;78.30;;;;;;4991343;28;20496;-70
2022/11/12 00:55:12;;;;;;;2.67;1.83;;;12.40;78.20;;;;;;4985860;28;20448;-70
2022/11/12 00:57:59;;;;;;;2.73;2.20;;;12.40;78.10;;;;;;4988115;28;20944;-70
2022/11/12 01:00:46;;;;;;;4.30;2.40;;;12.40;78.20;;;;;;4982793;28;20544;-70
2022/11/12 01:03:33;;;;;;;2.87;2.20;;;12.40;78.00;;;;;;4989650;28;20996;-70
2022/11/12 01:06:22;;;;;;;2.20;2.00;;;12.40;77.90;;;;;;4981905;28;20557;-70
2022/11/12 01:09:11;;;;;;;3.00;2.00;;;12.40;77.70;;;;;;4990875;28;20892;-70
2022/11/12 01:11:58;;;;;;;3.20;2.83;;;12.40;78.20;;;;;;4989139;28;20477;-70
2022/11/12 01:14:45;;;;;;;3.60;3.27;;;12.40;77.80;;;;;;4985947;28;20473;-70
2022/11/12 01:17:32;;;;;;;2.27;2.07;;;12.40;77.00;;;;;;4992024;28;20456;-70
2022/11/12 01:20:19;;;;;;;3.60;2.23;;;12.40;77.50;;;;;;4978667;28;20549;-70
2022/11/12 01:23:06;;;;;;;5.90;2.90;;;12.40;78.10;;;;;;4991968;28;20456;-70
2022/11/12 01:25:55;;;;;;;2.50;2.30;;;12.40;77.80;;;;;;4980542;28;20482;-70
2022/11/12 01:28:43;;;;;;;5.00;2.90;;;12.30;78.10;;;;;;4980375;28;20534;-70
2022/11/12 01:31:32;;;;;;;2.40;2.20;;;12.40;77.80;;;;;;4981993;28;20481;-69
2022/11/12 01:34:19;;;;;;;3.23;2.90;;;12.40;78.00;;;;;;4991355;28;20792;-69
2022/11/12 01:37:06;;;;;;;2.10;1.90;;;12.40;78.20;;;;;;4991467;28;20854;-69
2022/11/12 01:39:53;;;;;;;2.97;2.70;;;12.40;78.20;;;;;;4984702;28;20471;-69
2022/11/12 01:42:42;;;;;;;2.60;2.00;;;12.30;78.00;;;;;;4986686;28;20439;-69
2022/11/12 01:45:29;;;;;;;2.33;2.00;;;12.40;78.00;;;;;;4990515;28;20540;-69
2022/11/12 01:48:26;;;;;;;3.10;2.40;;;12.40;78.20;;;;;;4981074;28;20481;-69
2022/11/12 01:51:15;;;;;;;2.17;1.80;;;12.40;78.20;;;;;;4980137;28;20561;-69
2022/11/12 01:54:07;;;;;;;1.90;1.50;;;12.30;78.00;;;;;;4990323;28;20721;-69
2022/11/12 01:56:57;;;;;;;2.30;2.10;;;12.30;78.00;;;;;;4983589;28;20486;-69
2022/11/12 01:59:49;;;;;;;2.43;2.10;;;12.30;77.90;;;;;;4989546;28;20462;-69
2022/11/12 02:02:37;;;;;;;3.83;2.17;;;12.30;77.90;;;;;;4985178;28;20462;-69
2022/11/12 02:05:26;;;;;;;3.37;2.57;;;12.30;77.30;;;;;;4990431;28;20442;-69
2022/11/12 02:08:13;;;;;;;2.70;2.33;;;12.30;77.90;;;;;;4991097;28;21093;-69
2022/11/12 02:11:12;;;;;;;2.80;2.03;;;12.30;78.00;;;;;;4989727;28;20492;-69
2022/11/12 02:14:00;;;;;;;2.93;1.87;;;12.30;77.80;;;;;;4982767;28;20504;-69
2022/11/12 02:16:52;;;;;;;2.63;2.10;;;12.30;77.90;;;;;;4981568;28;20486;-69
2022/11/12 02:19:38;;;;;;;3.00;2.70;;;12.30;77.80;;;;;;4984384;28;20537;-69
2022/11/12 02:22:49;;;;;;;3.67;2.37;;;12.30;78.00;;;;;;4988700;28;20450;-69
2022/11/12 02:25:36;;;;;;;3.67;2.30;;;12.30;77.90;;;;;;4989307;28;20844;-72
2022/11/12 02:28:23;;;;;;;2.73;2.27;;;12.30;77.90;;;;;;4988167;28;20820;-73
2022/11/12 02:31:11;;;;;;;3.27;2.17;;;12.30;78.00;;;;;;4996887;28;20481;-72
2022/11/12 02:33:58;;;;;;;1.80;1.70;;;12.30;78.00;;;;;;5009015;28;20487;-72
2022/11/12 02:36:44;;;;;;;4.03;2.33;;;12.30;77.90;;;;;;4987045;28;20470;-72
2022/11/12 02:39:33;;;;;;;3.37;2.30;;;12.30;78.00;;;;;;4983951;28;20462;-72
2022/11/12 02:42:48;;;;;;;2.93;2.10;;;12.30;78.00;;;;;;4991911;23;20934;-48
2022/11/12 02:45:35;;;;;;;3.00;2.47;;;12.30;78.00;;;;;;4931082;29;20463;-54
2022/11/12 02:48:21;;;;;;;2.60;2.13;;;12.30;77.70;;;;;;4937534;29;20978;-54
2022/11/12 02:51:09;;;;;;;3.03;2.20;;;12.30;77.80;;;;;;4929864;29;20476;-54
2022/11/12 02:53:56;;;;;;;2.63;2.20;;;12.20;78.00;;;;;;4913265;29;20476;-52
2022/11/12 02:56:44;;;;;;;2.20;1.73;;;12.20;77.70;;;;;;4908603;29;20487;-53
2022/11/12 02:59:50;;;;;;;2.33;1.97;;;12.20;77.90;;;;;;4912632;29;20859;-52
2022/11/12 03:02:42;;;;;;;3.63;2.40;;;12.20;77.80;;;;;;4913812;29;20521;-50
2022/11/12 03:05:31;;;;;;;2.33;2.13;;;12.20;77.30;;;;;;4913382;29;20997;-54
2022/11/12 03:08:18;;;;;;;2.73;2.17;;;12.20;77.80;;;;;;4915393;29;20453;-54
2022/11/12 03:11:09;;;;;;;1.60;1.50;;;12.20;77.80;;;;;;4914238;29;20955;-51
2022/11/12 03:13:58;;;;;;;2.13;1.80;;;12.20;77.90;;;;;;4919454;29;20485;-52
2022/11/12 03:16:45;;;;;;;2.43;2.23;;;12.20;77.90;;;;;;4913199;29;20477;-50
2022/11/12 03:19:32;;;;;;;2.13;1.87;;;12.20;77.60;;;;;;4913908;29;20493;-51
2022/11/12 03:22:19;;;;;;;2.90;2.00;;;12.20;77.80;;;;;;4936567;29;20492;-51
2022/11/12 03:25:07;;;;;;;2.57;2.37;;;12.20;77.80;;;;;;4936215;29;21007;-53
2022/11/12 03:27:58;;;;;;;2.20;2.00;;;12.20;77.60;;;;;;4933512;29;20516;-51
2022/11/12 03:30:46;;;;;;;2.53;2.33;;;12.20;77.70;;;;;;4931333;29;20491;-51
2022/11/12 03:33:33;;;;;;;2.77;2.43;;;12.20;77.70;;;;;;4933225;29;20476;-55
2022/11/12 03:36:20;;;;;;;2.43;2.23;;;12.20;77.80;;;;;;4933322;28;21006;-50
2022/11/12 03:39:07;;;;;;;2.40;2.20;;;12.20;77.80;;;;;;4933467;29;20439;-52
2022/11/12 03:41:55;;;;;;;2.40;2.20;;;12.20;77.70;;;;;;4927362;29;20484;-52
2022/11/12 03:44:41;;;;;;;3.07;2.10;;;12.10;77.40;;;;;;4932882;29;20476;-50
2022/11/12 03:47:30;;;;;;;2.40;2.20;;;12.10;77.60;;;;;;4932281;29;20467;-53
2022/11/12 03:50:19;;;;;;;2.50;2.13;;;12.10;77.50;;;;;;4932481;29;20977;-51
2022/11/12 03:53:06;;;;;;;4.13;1.77;;;12.10;77.60;;;;;;4928428;29;20511;-53
2022/11/12 03:55:54;;;;;;;3.57;2.27;;;12.10;77.70;;;;;;4930276;29;20853;-50
2022/11/12 03:58:41;;;;;;;2.97;2.10;;;12.10;77.70;;;;;;4915664;29;20536;-51
2022/11/12 04:01:28;;;;;;;2.13;1.93;;;12.10;77.60;;;;;;4917592;28;20480;-52
2022/11/12 04:04:17;;;;;;;2.53;1.83;;;12.10;77.70;;;;;;4917880;29;20448;-50
2022/11/12 04:10:14;;;;;;;2.60;2.40;;;12.10;77.70;;;;;;4868840;29;20463;-50
2022/11/12 04:22:19;;;;;;;2.10;1.90;;;12.10;77.70;;;;;;4937900;29;20456;-52
2022/11/12 04:28:10;;;;;;;3.10;1.97;;;12.00;77.50;;;;;;4932942;29;20448;-53
2022/11/12 04:30:56;;;;;;;2.53;2.07;;;12.00;77.60;;;;;;4930762;29;20476;-50
2022/11/12 04:33:43;;;;;;;2.03;1.80;;;12.00;77.60;;;;;;4928869;29;20468;-52
2022/11/12 04:36:30;;;;;;;1.97;1.87;;;12.00;77.60;;;;;;4916938;29;20481;-50
2022/11/12 04:39:18;;;;;;;2.60;2.10;;;12.00;77.30;;;;;;4917967;29;20457;-55
2022/11/12 04:45:11;;;;;;;1.70;1.53;;;12.00;76.90;;;;;;4915439;29;20515;-52
2022/11/12 04:47:58;;;;;;;1.87;1.73;;;12.00;76.80;;;;;;4913231;29;20592;-50
2022/11/12 04:50:49;;;;;;;1.57;1.47;;;12.00;77.20;;;;;;4925776;29;20467;-50
2022/11/12 04:53:36;;;;;;;2.23;1.70;;;12.00;77.30;;;;;;4925135;29;20830;-53
2022/11/12 04:56:25;;;;;;;2.10;1.60;;;12.00;77.30;;;;;;4931116;28;20476;-52
2022/11/12 04:59:11;;;;;;;1.60;1.40;;;12.00;77.30;;;;;;4939702;29;20443;-52
2022/11/12 05:01:58;;;;;;;3.13;2.30;;;12.00;77.40;;;;;;4910192;28;20477;-51
2022/11/12 05:04:45;;;;;;;2.27;2.07;;;12.00;77.30;;;;;;4906882;29;20962;-53
2022/11/12 05:07:35;;;;;;;3.53;2.30;;;11.90;77.30;;;;;;4914364;29;20442;-51
2022/11/12 05:10:22;;;;;;;2.30;2.10;;;11.90;77.30;;;;;;4912271;29;20465;-50
2022/11/12 05:13:10;;;;;;;2.00;1.63;;;11.90;77.30;;;;;;4913435;29;20468;-52
2022/11/12 05:15:57;;;;;;;2.17;1.60;;;11.90;77.30;;;;;;4921902;29;21047;-50
2022/11/12 05:18:44;;;;;;;1.90;1.70;;;11.90;77.40;;;;;;4931700;29;20444;-52
2022/11/12 05:24:38;;;;;;;2.20;2.00;;;11.90;77.40;;;;;;4927049;29;20476;-51
2022/11/12 05:27:28;;;;;;;1.60;1.50;;;11.90;77.30;;;;;;4942633;29;20817;-50
2022/11/12 05:30:17;;;;;;;2.90;2.10;;;11.90;77.30;;;;;;4940738;29;20457;-53
2022/11/12 05:33:04;;;;;;;2.30;1.67;;;11.90;77.30;;;;;;4936022;29;20476;-52
2022/11/12 05:35:51;;;;;;;1.93;1.43;;;11.90;77.30;;;;;;4943525;28;20472;-54
2022/11/12 05:38:38;;;;;;;1.97;1.77;;;11.90;77.30;;;;;;4927947;29;20550;-52
2022/11/12 05:41:25;;;;;;;3.33;1.63;;;11.90;77.10;;;;;;4939007;28;20475;-51
2022/11/12 05:44:12;;;;;;;1.50;1.40;;;11.90;77.30;;;;;;4935628;29;20464;-53
2022/11/12 05:47:00;;;;;;;1.80;1.50;;;11.90;77.30;;;;;;4933499;29;20483;-50
2022/11/12 05:49:47;;;;;;;1.53;1.43;;;11.90;77.40;;;;;;4933925;29;20442;-50
2022/11/12 05:52:34;;;;;;;2.50;1.70;;;11.90;77.20;;;;;;4935160;29;20474;-52
2022/11/12 05:55:22;;;;;;;2.53;1.70;;;11.80;77.00;;;;;;4936616;29;20476;-52
2022/11/12 05:58:08;;;;;;;1.80;1.70;;;11.80;77.20;;;;;;4935401;29;20452;-56
2022/11/12 06:00:55;;;;;;;1.90;1.40;;;11.80;77.30;;;;;;4930748;28;20510;-52
2022/11/12 06:03:44;;;;;;;1.90;1.40;;;11.80;77.30;;;;;;4935342;29;20460;-53
2022/11/12 06:06:31;;;;;;;3.00;1.53;;;11.80;77.20;;;;;;4917166;29;20476;-52
2022/11/12 06:09:18;;;;;;;2.37;1.90;;;11.80;77.30;;;;;;4934586;29;20449;-52
2022/11/12 06:12:07;;;;;;;1.60;1.50;;;11.80;77.30;;;;;;4934536;28;20511;-52
2022/11/12 06:14:54;;;;;;;2.80;2.00;;;11.80;77.30;;;;;;4933562;29;20461;-52
2022/11/12 06:17:42;;;;;;;2.63;1.60;;;11.80;77.20;;;;;;4934828;29;20432;-53
2022/11/12 06:20:31;;;;;;;3.00;1.40;;;11.80;77.30;;;;;;4940711;29;20592;-53
2022/11/12 06:23:18;;;;;;;1.70;1.60;;;11.80;77.30;;;;;;4938420;28;20460;-51
2022/11/12 06:26:05;;;;;;;2.57;1.70;;;11.80;77.00;;;;;;4935915;28;20555;-52
2022/11/12 06:28:52;;;;;;;2.00;1.40;;;11.80;77.20;;;;;;4948494;28;20468;-49
2022/11/12 06:31:39;;;;;;;1.90;1.70;;;11.80;77.10;;;;;;4932742;28;20472;-52
2022/11/12 06:34:26;;;;;;;1.40;1.30;;;11.80;77.10;;;;;;4938442;29;20592;-51
2022/11/12 06:37:15;;;;;;;2.53;1.67;;;11.80;77.00;;;;;;4931990;29;20456;-51
2022/11/12 06:40:02;;;;;;;2.97;1.90;;;11.80;77.20;;;;;;4937687;29;20456;-52
2022/11/12 06:42:56;;;;;;;2.10;1.90;;;11.70;77.30;;;;;;4937604;29;20856;-53
2022/11/12 06:45:43;;;;;;;1.70;1.50;;;11.70;77.10;;;;;;4933747;29;20967;-51
2022/11/12 06:48:31;;;;;;;1.63;1.53;;;11.70;76.90;;;;;;4932773;29;20940;-50
2022/11/12 06:51:19;;;;;;;1.70;1.40;;;11.70;77.10;;;;;;4936754;28;20475;-51
2022/11/12 06:54:08;;;;;;;1.50;1.40;;;11.70;77.30;;;;;;4930533;29;20440;-50
2022/11/12 06:56:54;;;;;;;2.70;1.90;;;11.70;77.30;;;;;;4929390;28;20480;-52
2022/11/12 06:59:41;;;;;;;3.47;1.37;;;11.70;77.10;;;;;;4934209;29;21000;-51
2022/11/12 07:02:29;;;;;;;1.60;1.50;;;11.70;77.10;;;;;;4940608;28;20499;-50
2022/11/12 07:05:15;;;;;;;2.10;1.80;;;11.70;77.10;;;;;;4934032;29;20524;-51
2022/11/12 07:08:02;;;;;;;1.43;1.30;;;11.70;76.80;;;;;;4937170;29;20971;-52
2022/11/12 07:10:56;;;;;;;2.50;1.40;;;11.70;77.00;;;;;;4934046;29;20987;-52
2022/11/12 07:13:44;;;;;;;1.60;1.20;;;11.70;77.30;;;;;;4934036;29;20462;-50
2022/11/12 07:16:32;;;;;;;2.00;1.50;;;11.70;77.40;;;;;;4941631;28;20593;-51
2022/11/12 07:19:19;;;;;;;1.57;1.13;;;11.70;77.00;;;;;;4936490;29;20436;-51
2022/11/12 07:22:05;;;;;;;1.70;1.40;;;11.70;76.90;;;;;;4925226;28;20692;-50
2022/11/12 07:24:52;;;;;;;1.87;1.40;;;11.70;77.30;;;;;;4919406;29;20529;-50
2022/11/12 07:27:40;;;;;;;2.10;1.60;;;11.60;77.10;;;;;;4926027;29;20952;-51
2022/11/12 07:30:27;;;;;;;1.73;1.60;;;11.60;77.10;;;;;;4918123;29;20518;-52
2022/11/12 07:33:15;;;;;;;1.60;1.50;;;11.60;77.10;;;;;;4914761;29;20464;-50
2022/11/12 07:36:04;;;;;;;1.60;1.50;;;11.60;77.10;;;;;;4920250;28;20864;-52
2022/11/12 07:38:52;;;;;;;2.33;1.73;;;11.60;77.00;;;;;;4907631;29;20802;-50
2022/11/12 07:41:39;;;;;;;1.27;1.17;;;11.60;76.70;;;;;;4914219;29;20465;-51
2022/11/12 07:44:27;;;;;;;1.77;1.40;;;11.60;77.10;;;;;;4913287;29;20449;-53
2022/11/12 07:47:14;;;;;;;1.40;1.30;;;11.60;76.80;;;;;;4931909;29;20960;-52
2022/11/12 07:50:02;;;;;;;1.77;1.67;;;11.50;76.80;;;;;;4940305;29;20458;-52
2022/11/12 07:52:49;;;;;;;2.00;1.80;;;11.50;76.70;;;;;;4927142;29;20467;-52
2022/11/12 07:55:36;;;;;;;1.77;1.50;;;11.50;76.90;;;;;;4928738;29;20857;-54
2022/11/12 07:58:24;;;;;;;1.57;1.47;;;11.50;76.50;;;;;;4933543;29;20483;-50
2022/11/12 08:01:24;;;;;;;1.40;1.30;;;11.50;76.90;;;;;;4931726;28;20502;-51
2022/11/12 08:04:12;;;;;;;1.70;1.30;;;11.50;76.80;;;;;;4933856;29;20491;-51
2022/11/12 08:07:00;;;;;;;1.50;1.40;;;11.50;77.10;;;;;;4933048;28;20476;-51
2022/11/12 08:09:47;;;;;;;2.63;1.77;;;11.40;77.00;;;;;;4930609;29;20439;-51
2022/11/12 08:12:34;;;;;;;1.60;1.43;;;11.50;76.60;;;;;;4936390;29;20493;-52
2022/11/12 08:15:21;;;;;;;1.53;1.30;;;11.50;77.00;;;;;;4933709;29;20468;-52
2022/11/12 08:18:10;;;;;;;1.50;1.40;;;11.40;76.80;;;;;;4932988;29;20428;-53
2022/11/12 08:21:00;;;;;;;1.70;1.60;;;11.40;76.50;;;;;;4927992;29;20483;-51
2022/11/12 08:23:47;;;;;;;2.13;1.60;;;11.40;76.00;;;;;;4931029;29;20483;-51
2022/11/12 08:26:34;;;;;;;1.80;1.57;;;11.40;76.30;;;;;;4931806;28;20543;-53
2022/11/12 08:29:23;;;;;;;2.33;1.77;;;11.40;76.10;;;;;;4933135;29;20448;-52
2022/11/12 08:32:10;;;;;;;2.03;1.30;;;11.40;76.30;;;;;;4933316;29;20473;-51
2022/11/12 08:34:59;;;;;;;1.90;1.70;;;11.40;76.40;;;;;;4943545;28;20463;-52
2022/11/12 08:37:46;;;;;;;1.57;1.47;;;11.40;76.30;;;;;;4941293;29;20433;-51
2022/11/12 08:40:34;;;;;;;1.70;1.40;;;11.40;76.60;;;;;;4943383;28;20467;-54
2022/11/12 08:43:21;;;;;;;2.40;1.40;;;11.50;76.80;;;;;;4995534;23;20483;-71
2022/11/12 08:46:08;;;;;;;1.70;1.43;;;11.50;76.80;;;;;;5039983;28;20481;-70
2022/11/12 08:48:55;;;;;;;1.87;1.57;;;11.50;76.80;;;;;;5038510;28;20770;-70
2022/11/12 08:51:43;;;;;;;1.30;1.20;;;11.50;76.80;;;;;;5006939;28;20467;-70
2022/11/12 08:54:31;;;;;;;1.37;1.10;;;11.60;77.10;;;;;;5000892;28;20658;-70
2022/11/12 08:57:17;;;;;;;2.00;1.40;;;11.60;77.00;;;;;;5010435;28;20453;-70
2022/11/12 09:00:06;;;;;;;1.70;1.60;;;11.60;77.00;;;;;;5014722;28;20555;-70
2022/11/12 09:02:53;;;;;;;1.47;1.37;;;11.60;77.10;;;;;;5020350;28;20804;-70
2022/11/12 09:05:40;;;;;;;2.30;1.73;;;11.60;76.90;;;;;;5014446;28;20460;-69
2022/11/12 09:08:29;;;;;;;1.47;1.17;;;11.60;77.00;;;;;;5030612;28;20898;-70
2022/11/12 09:11:17;;;;;;;1.50;1.30;;;11.60;76.90;;;;;;5028379;28;20525;-70
2022/11/12 09:14:04;;;;;;;1.43;1.13;;;11.60;77.00;;;;;;5031241;28;20431;-70
2022/11/12 09:16:55;;;;;;;1.50;1.07;;;11.60;77.00;;;;;;5025906;28;20893;-70
2022/11/12 09:19:42;;;;;;;2.57;1.27;;;11.60;77.00;;;;;;5023866;28;20467;-73
2022/11/12 09:22:32;;;;;;;1.63;1.40;;;11.60;76.90;;;;;;5026692;28;20463;-73
2022/11/12 09:25:21;;;;;;;1.47;1.37;;;11.60;76.90;;;;;;5036190;28;20429;-73
2022/11/12 09:28:08;;;;;;;1.57;1.30;;;11.60;76.90;;;;;;5026562;28;20943;-73
2022/11/12 09:30:56;;;;;;;1.50;1.40;;;11.60;77.00;;;;;;5023788;28;20481;-73
2022/11/12 09:33:43;;;;;;;1.40;1.20;;;11.60;76.90;;;;;;4998910;28;20428;-73
2022/11/12 09:36:30;;;;;;;1.73;1.30;;;11.60;77.00;;;;;;5003178;28;21068;-73
2022/11/12 09:39:24;;;;;;;1.67;1.43;;;11.60;77.00;;;;;;5004478;28;20461;-73
2022/11/12 09:42:16;;;;;;;2.00;1.17;;;11.60;77.10;;;;;;5006575;28;20461;-73
2022/11/12 09:45:37;;;;;;;2.43;1.50;;;11.60;77.00;;;;;;5009162;28;20453;-73
2022/11/12 09:49:13;;;;;;;2.00;1.50;;;11.60;77.00;;;;;;5010943;28;20473;-73
2022/11/12 09:52:21;;;;;;;1.70;1.30;;;11.60;77.00;;;;;;5022615;28;20492;-73
2022/11/12 09:55:38;;;;;;;1.60;1.50;;;11.60;77.20;;;;;;5010339;28;20467;-74
2022/11/12 09:59:03;;;;;;;1.47;1.30;;;11.60;77.10;;;;;;5021846;28;20818;-72
2022/11/12 10:02:22;;;;;;;2.10;1.57;;;11.60;77.30;;;;;;5000345;28;20587;-73
2022/11/12 10:05:28;;;;;;;3.03;1.97;;;11.60;77.60;;;;;;5025845;28;20812;-73
2022/11/12 10:08:35;;;;;;;2.40;2.10;;;11.60;77.70;;;;;;5018346;28;20951;-73
2022/11/12 10:16:41;;;;;;;3.25;2.30;;;11.60;78.40;;;;;;5025169;28;20476;-73
2022/11/12 10:18:13;;;;;;;3.23;2.23;;;11.60;78.70;;;;;;5018343;28;20225;-70
2022/11/12 10:21:10;;;;;;;2.10;1.80;;;11.60;78.40;;;;;;5004931;28;20453;-70
2022/11/12 10:24:00;;;;;;;2.10;1.90;;;11.60;78.20;;;;;;5008175;28;20444;-69
2022/11/12 10:26:49;;;;;;;2.77;1.97;;;11.60;78.20;;;;;;5002911;28;20472;-72
2022/11/12 10:29:42;;;;;;;2.47;1.67;;;11.60;78.30;;;;;;5001971;28;20574;-69
2022/11/12 10:32:37;;;;;;;2.30;2.10;;;11.60;78.40;;;;;;5009304;28;20453;-73
2022/11/12 10:35:25;;;;;;;2.57;1.60;;;11.60;78.50;;;;;;5010066;28;20444;-73
2022/11/12 10:38:15;;;;;;;3.60;1.70;;;11.60;78.40;;;;;;5001749;28;20430;-73
2022/11/12 10:41:18;;;;;;;2.30;1.50;;;11.60;78.50;;;;;;5002828;28;21421;-73
2022/11/12 10:44:07;;;;;;;3.03;1.47;;;11.60;78.80;;;;;;5004297;28;20437;-73
2022/11/12 10:47:19;;;;;;;4.80;1.77;;;11.60;78.60;;;;;;5000580;28;20465;-72
2022/11/12 10:50:18;;;;;;;3.40;2.20;;;11.50;78.70;;;;;;5003945;28;20698;-73
2022/11/12 10:53:07;;;;;;;3.10;2.40;;;11.60;79.00;;;;;;5000374;28;20440;-73
2022/11/12 10:55:56;;;;;;;1.50;1.30;;;11.60;78.90;;;;;;5014417;28;20942;-73
2022/11/12 10:58:44;;;;;;;2.60;1.80;;;11.60;79.30;;;;;;5019079;28;20504;-69
2022/11/12 11:01:34;;;;;;;1.60;1.50;;;11.60;79.10;;;;;;5003936;28;20813;-69
2022/11/12 11:04:30;;;;;;;2.53;1.87;;;11.60;82.20;;;;;;5006263;28;20433;-69
2022/11/12 11:07:23;;;;;;;1.73;1.50;;;11.60;80.30;;;;;;5023114;28;20451;-69
2022/11/12 11:10:23;;;;;;;4.00;2.80;;;11.60;80.00;;;;;;5024172;28;20468;-69
2022/11/12 11:13:21;;;;;;;1.50;1.40;;;11.60;79.90;;;;;;5036333;28;20431;-69
2022/11/12 11:16:12;;;;;;;2.50;1.60;;;11.60;79.60;;;;;;5023042;28;20586;-69
2022/11/12 11:19:02;;;;;;;2.10;1.57;;;11.60;79.70;;;;;;5020400;28;20433;-69
2022/11/12 11:22:02;;;;;;;2.03;1.43;;;11.60;79.40;;;;;;5028916;28;20547;-69
2022/11/12 11:25:01;;;;;;;2.33;1.80;;;11.60;79.50;;;;;;5022681;28;20440;-72
2022/11/12 11:28:08;;;;;;;1.90;1.67;;;11.50;79.80;;;;;;5004821;28;20437;-72
2022/11/12 11:31:02;;;;;;;1.73;1.63;;;11.50;79.80;;;;;;5009087;28;20613;-72
2022/11/12 11:33:57;;;;;;;2.13;1.40;;;11.50;79.70;;;;;;5021666;28;20448;-72
2022/11/12 11:36:55;;;;;;;1.50;1.40;;;11.50;80.30;;;;;;5029346;28;20503;-73
2022/11/12 11:40:10;;;;;;;1.20;1.10;;;11.50;80.10;;;;;;5024255;28;20562;-68
2022/11/12 11:43:15;;;;;;;1.80;1.40;;;11.50;80.50;;;;;;5027780;28;20448;-69
2022/11/12 11:46:09;;;;;;;2.30;1.70;;;11.50;80.00;;;;;;5020441;28;20472;-69
2022/11/12 11:49:20;;;;;;;2.47;1.70;;;11.60;80.20;;;;;;5022487;28;20528;-69
2022/11/12 11:52:14;;;;;;;2.20;1.30;;;11.50;80.20;;;;;;5024113;28;20487;-72
2022/11/12 11:55:17;;;;;;;1.60;1.23;;;11.50;80.00;;;;;;5024843;28;20447;-73
2022/11/12 11:58:15;;;;;;;2.40;1.20;;;11.60;80.10;;;;;;5018202;28;20468;-73
2022/11/12 12:01:13;;;;;;;1.53;1.40;;;11.60;80.10;;;;;;5018062;28;20484;-69
2022/11/12 12:04:33;;;;;;;2.00;1.47;;;11.50;80.10;;;;;;5022516;28;20439;-69
2022/11/12 12:07:31;;;;;;;1.17;1.07;;;11.50;80.30;;;;;;5026367;28;20454;-73
2022/11/12 12:10:25;;;;;;;1.50;1.17;;;11.50;80.00;;;;;;5024969;28;20957;-69
2022/11/12 12:13:44;;;;;;;2.33;1.80;;;11.50;80.10;;;;;;5025389;28;20439;-69
2022/11/12 12:16:47;;;;;;;2.20;1.33;;;11.50;80.10;;;;;;5030455;28;20467;-69
2022/11/12 12:19:47;;;;;;;2.10;1.43;;;11.50;80.10;;;;;;5033700;28;20990;-69
2022/11/12 12:22:39;;;;;;;2.70;1.97;;;11.50;80.50;;;;;;5019629;28;20951;-69
2022/11/12 12:25:32;;;;;;;1.23;1.10;;;11.50;80.30;;;;;;5020455;28;20793;-69
2022/11/12 12:28:28;;;;;;;1.83;1.20;;;11.50;80.50;;;;;;5031788;28;20526;-69
2022/11/12 12:31:20;;;;;;;3.30;2.37;;;11.50;81.00;;;;;;5028038;28;20868;-69
2022/11/12 12:34:20;;;;;;;2.70;1.63;;;11.60;84.20;;;;;;5031820;28;20438;-70
2022/11/12 12:37:14;;;;;;;1.97;1.77;;;11.60;84.20;;;;;;5008670;28;20476;-70
2022/11/12 12:40:09;;;;;;;1.87;1.67;;;11.60;84.10;;;;;;4994328;28;20624;-70
2022/11/12 12:43:05;;;;;;;2.70;1.70;;;11.60;84.10;;;;;;5004596;28;20444;-70
2022/11/12 12:45:52;;;;;;;2.13;1.50;;;11.60;83.70;;;;;;5003923;28;20542;-72
2022/11/12 12:48:43;;;;;;;5.77;3.00;;;11.60;83.50;;;;;;5027223;28;20436;-71
2022/11/12 12:51:33;;;;;;;5.57;2.97;;;11.70;87.40;;;;;;5004956;28;20575;-69
2022/11/12 12:54:55;;;;;;;3.93;2.53;;;11.70;87.20;;;;;;5006603;28;20532;-70
2022/11/12 12:57:58;;;;;;;4.70;2.50;;;11.70;87.20;;;;;;5019489;28;20987;-69
2022/11/12 13:00:53;;;;;;;3.70;2.27;;;11.70;86.60;;;;;;5011957;28;20468;-70
2022/11/12 13:03:56;;;;;;;3.47;2.10;;;11.70;86.40;;;;;;5026554;28;20452;-70
2022/11/12 13:06:53;;;;;;;3.53;1.90;;;11.70;85.70;;;;;;5019217;28;20467;-70
2022/11/12 13:09:41;;;;;;;2.80;2.50;;;11.70;85.30;;;;;;5004903;28;20482;-70
2022/11/12 13:13:00;;;;;;;3.43;2.50;;;11.70;85.00;;;;;;5006345;28;20556;-70
2022/11/12 13:19:07;;;;;;;2.27;1.97;;;11.60;84.90;;;;;;5006266;28;20500;-73
2022/11/12 13:22:27;;;;;;;1.90;1.70;;;11.60;84.90;;;;;;5022060;28;20476;-73
2022/11/12 13:25:27;;;;;;;1.73;1.40;;;11.60;84.90;;;;;;5026159;28;20443;-73
2022/11/12 13:28:14;;;;;;;2.17;1.97;;;11.60;84.90;;;;;;5023405;28;20540;-73
2022/11/12 13:31:04;;;;;;;2.23;1.83;;;11.60;84.90;;;;;;5006110;28;20560;-73
2022/11/12 13:33:51;;;;;;;5.80;2.43;;;11.60;84.90;;;;;;5007790;28;20451;-73
2022/11/12 13:36:38;;;;;;;3.47;2.03;;;11.60;84.60;;;;;;5024356;28;20477;-74
2022/11/12 13:39:25;;;;;;;3.17;1.53;;;11.60;84.50;;;;;;5021221;28;20496;-73
2022/11/12 13:45:21;;;;;;;2.40;2.20;;;11.60;84.30;;;;;;5006202;28;20452;-70
2022/11/12 13:48:15;;;;;;;2.20;1.23;;;11.60;84.30;;;;;;5003275;28;20441;-70
2022/11/12 13:51:05;;;;;;;2.33;1.80;;;11.60;84.20;;;;;;5005596;28;20924;-70
2022/11/12 13:53:53;;;;;;;1.70;1.60;;;11.60;84.20;;;;;;5004432;28;20445;-69
2022/11/12 13:56:40;;;;;;;1.70;1.60;;;11.60;84.10;;;;;;5005435;28;20607;-68
2022/11/12 13:59:27;;;;;;;2.60;1.57;;;11.60;84.00;;;;;;5008869;28;20471;-69
2022/11/12 14:02:21;;;;;;;1.90;1.50;;;11.60;84.00;;;;;;5022984;28;20999;-70
2022/11/12 14:05:16;;;;;;;2.60;2.00;;;11.60;84.00;;;;;;5030740;28;20472;-72
2022/11/12 14:08:42;;;;;;;3.60;1.87;;;11.60;84.50;;;;;;5025375;28;20420;-73
2022/11/12 14:11:47;;;;;;;2.30;1.60;;;11.60;83.90;;;;;;5003130;28;20499;-73
2022/11/12 14:14:47;;;;;;;2.30;1.57;;;11.60;85.10;;;;;;5029733;28;20447;-73
2022/11/12 14:17:43;;;;;;;1.70;1.60;;;11.60;83.70;;;;;;5029268;28;20975;-73
2022/11/12 14:20:35;;;;;;;1.20;1.10;;;11.60;83.80;;;;;;5025524;28;20641;-73
2022/11/12 14:23:23;;;;;;;2.97;1.50;;;11.60;83.70;;;;;;5015016;28;20820;-73
2022/11/12 14:26:13;;;;;;;1.80;1.67;;;11.60;84.20;;;;;;5014318;28;20542;-73
2022/11/12 14:29:02;;;;;;;1.77;1.53;;;11.60;83.70;;;;;;5022965;28;20440;-69
2022/11/12 14:32:00;;;;;;;1.97;1.70;;;11.60;83.60;;;;;;5022192;28;20559;-70
2022/11/12 14:34:47;;;;;;;1.97;1.63;;;11.60;83.60;;;;;;5017748;28;20803;-70
2022/11/12 14:37:38;;;;;;;1.47;1.37;;;11.60;83.60;;;;;;5025912;28;20456;-70
2022/11/12 14:40:31;;;;;;;1.77;1.67;;;11.60;83.60;;;;;;5020929;28;20478;-70
2022/11/12 14:43:31;;;;;;;1.47;1.37;;;11.60;83.50;;;;;;5048873;23;20448;-74
2022/11/12 14:46:24;;;;;;;3.77;1.47;;;11.60;83.50;;;;;;4953334;28;20478;-74
2022/11/12 14:49:19;;;;;;;2.03;1.83;;;11.60;84.60;;;;;;4976992;28;20427;-73
2022/11/12 14:52:29;;;;;;;2.30;1.53;;;11.60;83.60;;;;;;4956196;28;20439;-73
2022/11/12 14:55:20;;;;;;;2.10;1.70;;;11.60;83.50;;;;;;4950024;28;20943;-73
2022/11/12 14:58:12;;;;;;;1.67;1.43;;;11.60;83.60;;;;;;4950652;28;20529;-75
2022/11/12 15:01:16;;;;;;;2.30;1.80;;;11.60;83.50;;;;;;4950393;28;20887;-73
2022/11/12 15:04:26;;;;;;;2.83;1.40;;;11.60;83.50;;;;;;4948129;28;20443;-73
2022/11/12 15:07:24;;;;;;;3.23;1.83;;;11.60;83.40;;;;;;4947192;28;20471;-74
2022/11/12 15:10:33;;;;;;;1.83;1.70;;;11.60;83.30;;;;;;4946505;28;20456;-73
2022/11/12 15:13:23;;;;;;;1.47;1.37;;;11.60;84.50;;;;;;4950417;28;20683;-68
2022/11/12 15:16:18;;;;;;;2.93;1.80;;;11.60;84.00;;;;;;4944846;28;21010;-73
2022/11/12 15:19:17;;;;;;;1.97;1.63;;;11.70;84.00;;;;;;4956110;28;20542;-75
2022/11/12 15:22:04;;;;;;;1.87;1.43;;;11.60;83.80;;;;;;4945356;28;20975;-73
2022/11/12 15:24:51;;;;;;;2.40;2.00;;;11.60;83.80;;;;;;4940831;28;20468;-74
2022/11/12 15:27:42;;;;;;;3.03;1.77;;;11.60;84.50;;;;;;4930130;29;20980;-73